GMT,Max TemperatureF,Mean TemperatureF,Min TemperatureF,Max Dew PointF,MeanDew PointF,Min DewpointF,Max Humidity, Mean Humidity, Min Humidity, Max Sea Level PressureIn, Mean Sea Level PressureIn, Min Sea Level PressureIn, Max VisibilityMiles, Mean VisibilityMiles, Min VisibilityMiles, Max Wind SpeedMPH, Mean Wind SpeedMPH, Max Gust SpeedMPH,PrecipitationIn, CloudCover, Events, WindDirDegrees
2013-1-1,45,39,33,34,33,32,93,75,52,29.89,29.51,29.27,19,7,6,21,15,,0.00,2,,266
2013-1-2,53,46,39,48,42,34,100,86,71,29.96,29.92,29.86,19,8,3,26,11,,0.20,6,Rain,253
2013-1-3,52,50,48,48,45,39,94,79,63,30.35,30.18,29.95,19,8,6,29,20,40,0.00,5,Rain,262
2013-1-4,52,48,44,48,45,42,94,84,67,30.43,30.39,30.33,19,8,6,25,17,,0.00,6,,260
2013-1-5,50,49,48,46,45,41,93,83,67,30.42,30.31,30.24,19,9,6,20,13,,0.01,7,Rain,252
2013-1-6,48,44,39,45,41,37,100,86,69,30.39,30.28,30.15,19,9,6,18,10,,0.00,6,,247
2013-1-7,48,47,46,47,46,45,100,94,82,30.15,30.06,29.98,9,6,3,10,6,,0.24,8,Rain,232
2013-1-8,52,46,39,50,44,37,100,89,70,30.13,30.02,29.95,19,7,2,20,7,,0.02,5,Rain,242
2013-1-9,44,40,35,39,36,34,100,87,76,30.11,30.07,30.01,19,9,6,15,11,,0.00,4,,255
2013-1-10,43,39,35,41,38,34,100,93,82,30.01,29.97,29.95,19,5,2,8,5,,0.04,6,Rain,315
2013-1-11,41,38,35,39,37,34,100,95,80,30.01,29.99,29.98,9,5,1,7,3,,0.00,8,Rain,302
2013-1-12,40,34,28,36,32,27,100,87,69,30.13,30.04,29.95,19,8,6,13,4,,0.00,5,Rain-Snow,153
2013-1-13,36,34,33,34,33,32,93,90,82,30.14,30.06,29.98,16,8,6,10,5,,0.08,8,Rain-Snow,244
2013-1-14,37,34,31,36,32,28,98,88,70,29.95,29.78,29.71,12,7,6,9,5,,0.12,6,Rain-Snow,297
2013-1-15,37,32,28,34,31,27,100,93,86,29.93,29.88,29.80,19,6,1,10,4,,0.04,5,Fog-Rain-Snow,338
2013-1-16,33,28,24,30,27,23,100,88,67,29.99,29.91,29.86,19,7,2,7,2,,0.01,6,Fog,251
2013-1-17,37,34,30,30,28,23,100,77,51,30.01,29.96,29.86,12,7,6,20,6,,0.00,7,,124
2013-1-18,39,36,32,32,29,23,100,80,48,29.86,29.69,29.62,16,5,0,31,18,43,0.04,5,Rain-Snow,147
2013-1-19,39,36,33,34,30,25,93,75,53,29.75,29.69,29.62,19,7,2,25,17,22,0.12,6,Rain-Snow-Hail,113
2013-1-20,37,36,35,34,25,21,93,61,46,29.72,29.64,29.56,19,8,4,25,18,,0.01,8,Rain-Snow-Hail,95
2013-1-21,37,35,33,34,30,25,93,78,49,29.60,29.56,29.53,12,5,1,36,28,50,0.12,7,Rain-Snow,105
2013-1-22,37,35,33,34,32,30,93,83,66,29.87,29.71,29.59,12,5,1,32,24,43,0.16,7,Rain-Snow,117
2013-1-23,35,34,32,34,32,28,100,94,87,29.98,29.89,29.86,12,6,3,6,4,,0.08,6,Rain-Snow,13
2013-1-24,36,34,32,36,32,28,100,90,63,30.06,30.02,29.95,19,7,3,8,4,,0.00,7,,269
2013-1-25,35,34,32,34,31,28,100,90,73,29.95,29.67,29.39,12,4,1,8,4,,0.31,8,Rain-Snow,137
2013-1-26,42,38,33,39,34,30,100,86,72,29.51,29.36,28.97,16,7,2,22,9,,0.01,6,Rain-Snow,233
2013-1-27,45,42,37,43,36,32,93,81,69,29.15,28.92,28.74,19,8,5,31,18,36,0.01,5,Rain,240
2013-1-28,46,42,37,43,37,32,89,81,61,29.30,29.08,28.85,19,7,4,30,24,40,0.20,5,Rain,229
2013-1-29,51,46,42,48,39,32,93,77,52,29.29,29.10,28.91,16,7,4,37,21,51,0.16,5,Rain,233
2013-1-30,46,44,41,36,32,27,81,64,42,29.57,29.22,29.06,19,7,6,37,29,51,0.00,2,Rain,254
2013-1-31,44,41,38,39,36,34,93,84,71,29.59,29.39,29.21,19,8,6,25,14,,0.08,6,Rain,244